sensor_id;sensor_type;location;lat;lon;timestamp;P1;P2;P0
74880;PMS5003;63427;49.654;6.596;2023-03-20T00:02:06;9;9;
74880;PMS5003;63427;49.654;6.596;2023-03-20T00:04:31;12;12;
74880;PMS5003;63427;49.654;6.596;2023-03-20T00:06:57;12;12;
74880;PMS5003;63427;49.654;6.596;2023-03-20T00:09:23;13;13;
74880;PMS5003;63427;49.654;6.596;2023-03-20T00:11:49;9;9;
74880;PMS5003;63427;49.654;6.596;2023-03-20T00:14:14;9;9;
74880;PMS5003;63427;49.654;6.596;2023-03-20T00:16:40;10;10;
74880;PMS5003;63427;49.654;6.596;2023-03-20T00:19:05;11;11;
74880;PMS5003;63427;49.654;6.596;2023-03-20T00:21:30;9;9;
74880;PMS5003;63427;49.654;6.596;2023-03-20T00:23:55;12;11;
74880;PMS5003;63427;49.654;6.596;2023-03-20T00:26:22;10;10;
74880;PMS5003;63427;49.654;6.596;2023-03-20T00:28:47;12;12;
74880;PMS5003;63427;49.654;6.596;2023-03-20T00:31:14;9;9;
74880;PMS5003;63427;49.654;6.596;2023-03-20T00:33:37;11;11;
74880;PMS5003;63427;49.654;6.596;2023-03-20T00:36:03;11;11;
74880;PMS5003;63427;49.654;6.596;2023-03-20T00:38:28;14;14;
74880;PMS5003;63427;49.654;6.596;2023-03-20T00:40:54;13;13;
74880;PMS5003;63427;49.654;6.596;2023-03-20T00:43:19;12;12;
74880;PMS5003;63427;49.654;6.596;2023-03-20T00:45:45;10;10;
74880;PMS5003;63427;49.654;6.596;2023-03-20T00:48:12;11;11;
74880;PMS5003;63427;49.654;6.596;2023-03-20T00:50:36;13;13;
74880;PMS5003;63427;49.654;6.596;2023-03-20T00:53:01;12;12;
74880;PMS5003;63427;49.654;6.596;2023-03-20T00:55:27;12;11;
74880;PMS5003;63427;49.654;6.596;2023-03-20T00:57:53;10;10;
74880;PMS5003;63427;49.654;6.596;2023-03-20T01:00:19;11;11;
74880;PMS5003;63427;49.654;6.596;2023-03-20T01:02:43;14;14;
74880;PMS5003;63427;49.654;6.596;2023-03-20T01:05:09;15;15;
74880;PMS5003;63427;49.654;6.596;2023-03-20T01:07:34;15;15;
74880;PMS5003;63427;49.654;6.596;2023-03-20T01:10:00;14;14;
74880;PMS5003;63427;49.654;6.596;2023-03-20T01:12:25;10;10;
74880;PMS5003;63427;49.654;6.596;2023-03-20T01:14:52;17;16;
74880;PMS5003;63427;49.654;6.596;2023-03-20T01:17:16;16;16;
74880;PMS5003;63427;49.654;6.596;2023-03-20T01:19:42;14;14;
74880;PMS5003;63427;49.654;6.596;2023-03-20T01:22:07;16;15;
74880;PMS5003;63427;49.654;6.596;2023-03-20T01:24:32;17;17;
74880;PMS5003;63427;49.654;6.596;2023-03-20T01:26:58;14;13;
74880;PMS5003;63427;49.654;6.596;2023-03-20T01:29:24;17;17;
74880;PMS5003;63427;49.654;6.596;2023-03-20T01:31:49;14;14;
74880;PMS5003;63427;49.654;6.596;2023-03-20T01:34:15;14;14;
74880;PMS5003;63427;49.654;6.596;2023-03-20T01:36:40;14;14;
74880;PMS5003;63427;49.654;6.596;2023-03-20T01:39:05;13;12;
74880;PMS5003;63427;49.654;6.596;2023-03-20T01:41:31;13;13;
74880;PMS5003;63427;49.654;6.596;2023-03-20T01:43:56;16;16;
74880;PMS5003;63427;49.654;6.596;2023-03-20T01:46:22;11;11;
74880;PMS5003;63427;49.654;6.596;2023-03-20T01:48:57;13;13;
74880;PMS5003;63427;49.654;6.596;2023-03-20T01:51:12;14;14;
74880;PMS5003;63427;49.654;6.596;2023-03-20T01:53:37;17;17;
74880;PMS5003;63427;49.654;6.596;2023-03-20T01:56:03;14;14;
74880;PMS5003;63427;49.654;6.596;2023-03-20T01:58:30;14;13;
74880;PMS5003;63427;49.654;6.596;2023-03-20T02:00:54;12;12;
74880;PMS5003;63427;49.654;6.596;2023-03-20T02:03:19;13;12;
74880;PMS5003;63427;49.654;6.596;2023-03-20T02:05:45;11;10;
74880;PMS5003;63427;49.654;6.596;2023-03-20T02:08:14;12;12;
74880;PMS5003;63427;49.654;6.596;2023-03-20T02:10:36;12;12;
74880;PMS5003;63427;49.654;6.596;2023-03-20T02:13:02;12;12;
74880;PMS5003;63427;49.654;6.596;2023-03-20T02:15:28;16;16;
74880;PMS5003;63427;49.654;6.596;2023-03-20T02:17:53;13;13;
74880;PMS5003;63427;49.654;6.596;2023-03-20T02:20:21;10;9;
74880;PMS5003;63427;49.654;6.596;2023-03-20T02:22:49;10;10;
74880;PMS5003;63427;49.654;6.596;2023-03-20T02:27:36;8;8;
74880;PMS5003;63427;49.654;6.596;2023-03-20T02:30:10;12;12;
74880;PMS5003;63427;49.654;6.596;2023-03-20T02:34:55;11;10;
74880;PMS5003;63427;49.654;6.596;2023-03-20T02:37:27;13;13;
74880;PMS5003;63427;49.654;6.596;2023-03-20T02:39:44;14;14;
74880;PMS5003;63427;49.654;6.596;2023-03-20T02:42:08;17;15;
74880;PMS5003;63427;49.654;6.596;2023-03-20T02:44:34;19;19;
74880;PMS5003;63427;49.654;6.596;2023-03-20T02:46:59;18;17;
74880;PMS5003;63427;49.654;6.596;2023-03-20T02:49:28;19;19;
74880;PMS5003;63427;49.654;6.596;2023-03-20T02:51:52;19;18;
74880;PMS5003;63427;49.654;6.596;2023-03-20T02:54:17;20;20;
74880;PMS5003;63427;49.654;6.596;2023-03-20T02:56:43;35;33;
74880;PMS5003;63427;49.654;6.596;2023-03-20T02:59:08;31;29;
74880;PMS5003;63427;49.654;6.596;2023-03-20T03:01:34;26;25;
74880;PMS5003;63427;49.654;6.596;2023-03-20T03:03:59;30;28;
74880;PMS5003;63427;49.654;6.596;2023-03-20T03:06:24;30;29;
74880;PMS5003;63427;49.654;6.596;2023-03-20T03:08:49;26;25;
74880;PMS5003;63427;49.654;6.596;2023-03-20T03:11:13;33;31;
74880;PMS5003;63427;49.654;6.596;2023-03-20T03:13:40;35;34;
74880;PMS5003;63427;49.654;6.596;2023-03-20T03:16:05;36;34;
74880;PMS5003;63427;49.654;6.596;2023-03-20T03:18:30;32;29;
74880;PMS5003;63427;49.654;6.596;2023-03-20T03:20:56;35;34;
74880;PMS5003;63427;49.654;6.596;2023-03-20T03:23:26;33;32;
74880;PMS5003;63427;49.654;6.596;2023-03-20T03:25:46;32;31;
74880;PMS5003;63427;49.654;6.596;2023-03-20T03:28:14;32;32;
74880;PMS5003;63427;49.654;6.596;2023-03-20T03:30:37;31;30;
74880;PMS5003;63427;49.654;6.596;2023-03-20T03:33:11;31;30;
74880;PMS5003;63427;49.654;6.596;2023-03-20T03:35:28;32;31;
74880;PMS5003;63427;49.654;6.596;2023-03-20T03:37:55;33;32;
74880;PMS5003;63427;49.654;6.596;2023-03-20T03:40:22;37;35;
74880;PMS5003;63427;49.654;6.596;2023-03-20T03:42:48;29;29;
74880;PMS5003;63427;49.654;6.596;2023-03-20T03:45:11;33;32;
74880;PMS5003;63427;49.654;6.596;2023-03-20T03:47:36;26;24;
74880;PMS5003;63427;49.654;6.596;2023-03-20T03:50:04;29;28;
74880;PMS5003;63427;49.654;6.596;2023-03-20T03:52:26;25;24;
74880;PMS5003;63427;49.654;6.596;2023-03-20T03:54:52;27;27;
74880;PMS5003;63427;49.654;6.596;2023-03-20T03:57:19;26;25;
74880;PMS5003;63427;49.654;6.596;2023-03-20T03:59:43;24;23;
74880;PMS5003;63427;49.654;6.596;2023-03-20T04:02:08;23;23;
74880;PMS5003;63427;49.654;6.596;2023-03-20T04:04:35;23;22;
74880;PMS5003;63427;49.654;6.596;2023-03-20T04:06:59;28;26;
74880;PMS5003;63427;49.654;6.596;2023-03-20T04:09:25;29;28;
74880;PMS5003;63427;49.654;6.596;2023-03-20T04:11:51;24;24;
74880;PMS5003;63427;49.654;6.596;2023-03-20T04:14:16;25;25;
74880;PMS5003;63427;49.654;6.596;2023-03-20T04:16:41;22;21;
74880;PMS5003;63427;49.654;6.596;2023-03-20T04:19:07;24;23;
74880;PMS5003;63427;49.654;6.596;2023-03-20T04:21:33;24;23;
74880;PMS5003;63427;49.654;6.596;2023-03-20T04:23:58;23;23;
74880;PMS5003;63427;49.654;6.596;2023-03-20T04:26:23;26;25;
74880;PMS5003;63427;49.654;6.596;2023-03-20T04:28:49;31;30;
74880;PMS5003;63427;49.654;6.596;2023-03-20T04:31:14;25;25;
74880;PMS5003;63427;49.654;6.596;2023-03-20T04:33:39;32;31;
74880;PMS5003;63427;49.654;6.596;2023-03-20T04:36:06;29;27;
74880;PMS5003;63427;49.654;6.596;2023-03-20T04:38:31;29;28;
74880;PMS5003;63427;49.654;6.596;2023-03-20T04:40:56;32;30;
74880;PMS5003;63427;49.654;6.596;2023-03-20T04:43:21;23;23;
74880;PMS5003;63427;49.654;6.596;2023-03-20T04:45:47;26;26;
74880;PMS5003;63427;49.654;6.596;2023-03-20T04:48:12;27;26;
74880;PMS5003;63427;49.654;6.596;2023-03-20T04:50:38;30;30;
74880;PMS5003;63427;49.654;6.596;2023-03-20T04:53:03;25;24;
74880;PMS5003;63427;49.654;6.596;2023-03-20T04:55:28;23;22;
74880;PMS5003;63427;49.654;6.596;2023-03-20T04:57:53;28;26;
74880;PMS5003;63427;49.654;6.596;2023-03-20T05:00:25;22;22;
74880;PMS5003;63427;49.654;6.596;2023-03-20T05:02:45;24;23;
74880;PMS5003;63427;49.654;6.596;2023-03-20T05:05:11;23;21;
74880;PMS5003;63427;49.654;6.596;2023-03-20T05:07:36;22;21;
74880;PMS5003;63427;49.654;6.596;2023-03-20T05:10:02;25;24;
74880;PMS5003;63427;49.654;6.596;2023-03-20T05:12:26;16;15;
74880;PMS5003;63427;49.654;6.596;2023-03-20T05:14:52;24;22;
74880;PMS5003;63427;49.654;6.596;2023-03-20T05:17:17;20;19;
74880;PMS5003;63427;49.654;6.596;2023-03-20T05:19:44;23;23;
74880;PMS5003;63427;49.654;6.596;2023-03-20T05:22:07;19;17;
74880;PMS5003;63427;49.654;6.596;2023-03-20T05:24:33;17;17;
74880;PMS5003;63427;49.654;6.596;2023-03-20T05:26:58;20;18;
74880;PMS5003;63427;49.654;6.596;2023-03-20T05:29:24;15;15;
74880;PMS5003;63427;49.654;6.596;2023-03-20T05:31:50;21;21;
74880;PMS5003;63427;49.654;6.596;2023-03-20T05:34:15;18;18;
74880;PMS5003;63427;49.654;6.596;2023-03-20T05:36:40;18;17;
74880;PMS5003;63427;49.654;6.596;2023-03-20T05:39:05;15;15;
74880;PMS5003;63427;49.654;6.596;2023-03-20T05:41:30;15;14;
74880;PMS5003;63427;49.654;6.596;2023-03-20T05:43:56;25;25;
74880;PMS5003;63427;49.654;6.596;2023-03-20T05:46:21;27;25;
74880;PMS5003;63427;49.654;6.596;2023-03-20T05:48:47;21;20;
74880;PMS5003;63427;49.654;6.596;2023-03-20T05:51:12;16;15;
74880;PMS5003;63427;49.654;6.596;2023-03-20T05:53:37;14;14;
74880;PMS5003;63427;49.654;6.596;2023-03-20T05:56:04;16;16;
74880;PMS5003;63427;49.654;6.596;2023-03-20T05:58:28;17;17;
74880;PMS5003;63427;49.654;6.596;2023-03-20T06:00:53;18;18;
74880;PMS5003;63427;49.654;6.596;2023-03-20T06:03:19;16;16;
74880;PMS5003;63427;49.654;6.596;2023-03-20T06:05:44;13;13;
74880;PMS5003;63427;49.654;6.596;2023-03-20T06:08:10;19;18;
74880;PMS5003;63427;49.654;6.596;2023-03-20T06:10:35;22;20;
74880;PMS5003;63427;49.654;6.596;2023-03-20T06:13:00;20;19;
74880;PMS5003;63427;49.654;6.596;2023-03-20T06:15:26;21;21;
74880;PMS5003;63427;49.654;6.596;2023-03-20T06:17:51;23;22;
74880;PMS5003;63427;49.654;6.596;2023-03-20T06:20:17;22;22;
74880;PMS5003;63427;49.654;6.596;2023-03-20T06:22:42;20;20;
74880;PMS5003;63427;49.654;6.596;2023-03-20T06:25:08;25;24;
74880;PMS5003;63427;49.654;6.596;2023-03-20T06:27:33;23;22;
74880;PMS5003;63427;49.654;6.596;2023-03-20T06:29:59;31;30;
74880;PMS5003;63427;49.654;6.596;2023-03-20T06:32:24;22;21;
74880;PMS5003;63427;49.654;6.596;2023-03-20T06:34:49;24;24;
74880;PMS5003;63427;49.654;6.596;2023-03-20T06:37:14;24;24;
74880;PMS5003;63427;49.654;6.596;2023-03-20T06:39:40;22;20;
74880;PMS5003;63427;49.654;6.596;2023-03-20T06:42:05;25;24;
74880;PMS5003;63427;49.654;6.596;2023-03-20T06:44:31;25;25;
74880;PMS5003;63427;49.654;6.596;2023-03-20T06:46:56;26;25;
74880;PMS5003;63427;49.654;6.596;2023-03-20T06:49:21;24;23;
74880;PMS5003;63427;49.654;6.596;2023-03-20T06:51:47;31;30;
74880;PMS5003;63427;49.654;6.596;2023-03-20T06:54:12;26;25;
74880;PMS5003;63427;49.654;6.596;2023-03-20T06:56:38;23;20;
74880;PMS5003;63427;49.654;6.596;2023-03-20T06:59:03;19;18;
74880;PMS5003;63427;49.654;6.596;2023-03-20T07:01:29;25;23;
74880;PMS5003;63427;49.654;6.596;2023-03-20T07:03:54;20;20;
74880;PMS5003;63427;49.654;6.596;2023-03-20T07:06:19;23;21;
74880;PMS5003;63427;49.654;6.596;2023-03-20T07:08:44;25;23;
74880;PMS5003;63427;49.654;6.596;2023-03-20T07:11:10;28;28;
74880;PMS5003;63427;49.654;6.596;2023-03-20T07:13:35;26;24;
74880;PMS5003;63427;49.654;6.596;2023-03-20T07:16:01;26;25;
74880;PMS5003;63427;49.654;6.596;2023-03-20T07:18:26;20;20;
74880;PMS5003;63427;49.654;6.596;2023-03-20T07:20:52;21;20;
74880;PMS5003;63427;49.654;6.596;2023-03-20T07:23:17;28;26;
74880;PMS5003;63427;49.654;6.596;2023-03-20T07:25:42;24;22;
74880;PMS5003;63427;49.654;6.596;2023-03-20T07:28:08;23;22;
74880;PMS5003;63427;49.654;6.596;2023-03-20T07:30:33;30;30;
74880;PMS5003;63427;49.654;6.596;2023-03-20T07:32:59;30;30;
74880;PMS5003;63427;49.654;6.596;2023-03-20T07:35:25;30;29;
74880;PMS5003;63427;49.654;6.596;2023-03-20T07:37:50;24;23;
74880;PMS5003;63427;49.654;6.596;2023-03-20T07:40:16;32;30;
74880;PMS5003;63427;49.654;6.596;2023-03-20T07:42:41;31;30;
74880;PMS5003;63427;49.654;6.596;2023-03-20T07:45:07;25;24;
74880;PMS5003;63427;49.654;6.596;2023-03-20T07:47:32;25;23;
74880;PMS5003;63427;49.654;6.596;2023-03-20T07:49:57;29;28;
74880;PMS5003;63427;49.654;6.596;2023-03-20T07:52:23;28;27;
74880;PMS5003;63427;49.654;6.596;2023-03-20T07:54:49;32;31;
74880;PMS5003;63427;49.654;6.596;2023-03-20T07:57:14;26;24;
74880;PMS5003;63427;49.654;6.596;2023-03-20T07:59:40;25;24;
74880;PMS5003;63427;49.654;6.596;2023-03-20T08:02:06;23;22;
74880;PMS5003;63427;49.654;6.596;2023-03-20T08:04:31;19;19;
74880;PMS5003;63427;49.654;6.596;2023-03-20T08:06:57;21;19;
74880;PMS5003;63427;49.654;6.596;2023-03-20T08:09:22;30;29;
74880;PMS5003;63427;49.654;6.596;2023-03-20T08:11:49;31;30;
74880;PMS5003;63427;49.654;6.596;2023-03-20T08:14:14;21;21;
74880;PMS5003;63427;49.654;6.596;2023-03-20T08:16:40;26;24;
74880;PMS5003;63427;49.654;6.596;2023-03-20T08:19:06;29;28;
74880;PMS5003;63427;49.654;6.596;2023-03-20T08:21:31;25;25;
74880;PMS5003;63427;49.654;6.596;2023-03-20T08:23:57;22;22;
74880;PMS5003;63427;49.654;6.596;2023-03-20T08:26:22;22;22;
74880;PMS5003;63427;49.654;6.596;2023-03-20T08:28:48;24;23;
74880;PMS5003;63427;49.654;6.596;2023-03-20T08:31:14;32;30;
74880;PMS5003;63427;49.654;6.596;2023-03-20T08:33:39;21;21;
74880;PMS5003;63427;49.654;6.596;2023-03-20T08:36:05;27;24;
74880;PMS5003;63427;49.654;6.596;2023-03-20T08:38:30;16;16;
74880;PMS5003;63427;49.654;6.596;2023-03-20T08:40:56;22;22;
74880;PMS5003;63427;49.654;6.596;2023-03-20T08:43:21;25;25;
74880;PMS5003;63427;49.654;6.596;2023-03-20T08:45:46;24;22;
74880;PMS5003;63427;49.654;6.596;2023-03-20T08:48:12;25;22;
74880;PMS5003;63427;49.654;6.596;2023-03-20T08:50:38;18;18;
74880;PMS5003;63427;49.654;6.596;2023-03-20T08:53:03;23;22;
74880;PMS5003;63427;49.654;6.596;2023-03-20T08:55:28;25;23;
74880;PMS5003;63427;49.654;6.596;2023-03-20T08:57:53;21;20;
74880;PMS5003;63427;49.654;6.596;2023-03-20T09:00:19;19;19;
74880;PMS5003;63427;49.654;6.596;2023-03-20T09:02:44;20;18;
74880;PMS5003;63427;49.654;6.596;2023-03-20T09:05:10;21;19;
74880;PMS5003;63427;49.654;6.596;2023-03-20T09:07:36;18;17;
74880;PMS5003;63427;49.654;6.596;2023-03-20T09:10:01;20;20;
74880;PMS5003;63427;49.654;6.596;2023-03-20T09:12:27;20;19;
74880;PMS5003;63427;49.654;6.596;2023-03-20T09:14:52;22;22;
74880;PMS5003;63427;49.654;6.596;2023-03-20T09:17:18;21;19;
74880;PMS5003;63427;49.654;6.596;2023-03-20T09:19:43;18;17;
74880;PMS5003;63427;49.654;6.596;2023-03-20T09:22:09;15;14;
74880;PMS5003;63427;49.654;6.596;2023-03-20T09:24:34;18;17;
74880;PMS5003;63427;49.654;6.596;2023-03-20T09:26:59;15;15;
74880;PMS5003;63427;49.654;6.596;2023-03-20T09:29:25;19;19;
74880;PMS5003;63427;49.654;6.596;2023-03-20T09:31:51;23;23;
74880;PMS5003;63427;49.654;6.596;2023-03-20T09:34:16;16;15;
74880;PMS5003;63427;49.654;6.596;2023-03-20T09:36:41;17;17;
74880;PMS5003;63427;49.654;6.596;2023-03-20T09:39:07;19;18;
74880;PMS5003;63427;49.654;6.596;2023-03-20T09:41:32;20;19;
74880;PMS5003;63427;49.654;6.596;2023-03-20T09:44:01;16;15;
74880;PMS5003;63427;49.654;6.596;2023-03-20T09:46:26;19;19;
74880;PMS5003;63427;49.654;6.596;2023-03-20T09:48:48;13;12;
74880;PMS5003;63427;49.654;6.596;2023-03-20T09:51:14;17;15;
74880;PMS5003;63427;49.654;6.596;2023-03-20T09:53:39;14;14;
74880;PMS5003;63427;49.654;6.596;2023-03-20T09:56:03;13;13;
74880;PMS5003;63427;49.654;6.596;2023-03-20T09:58:29;15;14;
74880;PMS5003;63427;49.654;6.596;2023-03-20T10:00:55;18;18;
74880;PMS5003;63427;49.654;6.596;2023-03-20T10:03:20;16;15;
74880;PMS5003;63427;49.654;6.596;2023-03-20T10:05:45;19;19;
74880;PMS5003;63427;49.654;6.596;2023-03-20T10:08:11;14;14;
74880;PMS5003;63427;49.654;6.596;2023-03-20T10:10:38;16;16;
74880;PMS5003;63427;49.654;6.596;2023-03-20T10:13:04;18;18;
74880;PMS5003;63427;49.654;6.596;2023-03-20T10:15:30;13;13;
74880;PMS5003;63427;49.654;6.596;2023-03-20T10:17:54;14;13;
74880;PMS5003;63427;49.654;6.596;2023-03-20T10:20:21;14;13;
74880;PMS5003;63427;49.654;6.596;2023-03-20T10:22:44;16;16;
74880;PMS5003;63427;49.654;6.596;2023-03-20T10:25:14;13;12;
74880;PMS5003;63427;49.654;6.596;2023-03-20T10:27:33;13;12;
74880;PMS5003;63427;49.654;6.596;2023-03-20T10:30:02;15;14;
74880;PMS5003;63427;49.654;6.596;2023-03-20T10:32:25;12;12;
74880;PMS5003;63427;49.654;6.596;2023-03-20T10:34:53;14;13;
74880;PMS5003;63427;49.654;6.596;2023-03-20T10:37:18;13;12;
74880;PMS5003;63427;49.654;6.596;2023-03-20T10:39:44;12;12;
74880;PMS5003;63427;49.654;6.596;2023-03-20T10:42:08;12;12;
74880;PMS5003;63427;49.654;6.596;2023-03-20T10:44:30;16;15;
74880;PMS5003;63427;49.654;6.596;2023-03-20T10:46:55;13;13;
74880;PMS5003;63427;49.654;6.596;2023-03-20T10:49:23;12;12;
74880;PMS5003;63427;49.654;6.596;2023-03-20T10:51:46;15;15;
74880;PMS5003;63427;49.654;6.596;2023-03-20T10:54:20;12;12;
74880;PMS5003;63427;49.654;6.596;2023-03-20T10:56:37;15;14;
74880;PMS5003;63427;49.654;6.596;2023-03-20T10:59:03;12;11;
74880;PMS5003;63427;49.654;6.596;2023-03-20T11:01:27;13;13;
74880;PMS5003;63427;49.654;6.596;2023-03-20T11:03:53;10;10;
74880;PMS5003;63427;49.654;6.596;2023-03-20T11:06:19;11;11;
74880;PMS5003;63427;49.654;6.596;2023-03-20T11:08:46;15;14;
74880;PMS5003;63427;49.654;6.596;2023-03-20T11:11:09;12;12;
74880;PMS5003;63427;49.654;6.596;2023-03-20T11:13:35;12;12;
74880;PMS5003;63427;49.654;6.596;2023-03-20T11:18:25;12;12;
74880;PMS5003;63427;49.654;6.596;2023-03-20T11:20:51;12;12;
74880;PMS5003;63427;49.654;6.596;2023-03-20T11:23:16;10;10;
74880;PMS5003;63427;49.654;6.596;2023-03-20T11:25:45;10;10;
74880;PMS5003;63427;49.654;6.596;2023-03-20T11:30:31;11;11;
74880;PMS5003;63427;49.654;6.596;2023-03-20T11:32:57;10;10;
74880;PMS5003;63427;49.654;6.596;2023-03-20T11:35:26;12;11;
74880;PMS5003;63427;49.654;6.596;2023-03-20T11:37:48;11;11;
74880;PMS5003;63427;49.654;6.596;2023-03-20T11:40:13;10;10;
74880;PMS5003;63427;49.654;6.596;2023-03-20T11:42:37;8;8;
74880;PMS5003;63427;49.654;6.596;2023-03-20T11:45:04;8;8;
74880;PMS5003;63427;49.654;6.596;2023-03-20T11:47:30;10;8;
74880;PMS5003;63427;49.654;6.596;2023-03-20T11:49:54;9;9;
74880;PMS5003;63427;49.654;6.596;2023-03-20T11:52:19;9;9;
74880;PMS5003;63427;49.654;6.596;2023-03-20T11:54:45;8;8;
74880;PMS5003;63427;49.654;6.596;2023-03-20T11:57:12;11;11;
74880;PMS5003;63427;49.654;6.596;2023-03-20T11:59:35;9;9;
74880;PMS5003;63427;49.654;6.596;2023-03-20T12:02:00;9;9;
74880;PMS5003;63427;49.654;6.596;2023-03-20T12:04:26;10;10;
74880;PMS5003;63427;49.654;6.596;2023-03-20T12:06:52;8;8;
74880;PMS5003;63427;49.654;6.596;2023-03-20T12:09:22;11;11;
74880;PMS5003;63427;49.654;6.596;2023-03-20T12:11:42;13;11;
74880;PMS5003;63427;49.654;6.596;2023-03-20T12:14:09;10;10;
74880;PMS5003;63427;49.654;6.596;2023-03-20T12:16:33;10;10;
74880;PMS5003;63427;49.654;6.596;2023-03-20T12:18:59;10;9;
74880;PMS5003;63427;49.654;6.596;2023-03-20T12:21:25;11;10;
74880;PMS5003;63427;49.654;6.596;2023-03-20T12:23:50;12;11;
74880;PMS5003;63427;49.654;6.596;2023-03-20T12:26:17;10;10;
74880;PMS5003;63427;49.654;6.596;2023-03-20T12:28:41;9;9;
74880;PMS5003;63427;49.654;6.596;2023-03-20T12:31:10;8;8;
74880;PMS5003;63427;49.654;6.596;2023-03-20T12:33:34;11;10;
74880;PMS5003;63427;49.654;6.596;2023-03-20T12:35:56;9;9;
74880;PMS5003;63427;49.654;6.596;2023-03-20T12:38:23;8;8;
74880;PMS5003;63427;49.654;6.596;2023-03-20T12:40:47;8;8;
74880;PMS5003;63427;49.654;6.596;2023-03-20T12:43:13;9;9;
74880;PMS5003;63427;49.654;6.596;2023-03-20T12:45:38;9;8;
74880;PMS5003;63427;49.654;6.596;2023-03-20T12:48:05;9;9;
74880;PMS5003;63427;49.654;6.596;2023-03-20T12:50:30;8;8;
74880;PMS5003;63427;49.654;6.596;2023-03-20T12:52:56;7;7;
74880;PMS5003;63427;49.654;6.596;2023-03-20T12:55:22;8;7;
74880;PMS5003;63427;49.654;6.596;2023-03-20T12:57:48;7;6;
74880;PMS5003;63427;49.654;6.596;2023-03-20T13:00:13;7;6;
74880;PMS5003;63427;49.654;6.596;2023-03-20T13:02:39;6;5;
74880;PMS5003;63427;49.654;6.596;2023-03-20T13:05:07;4;4;
74880;PMS5003;63427;49.654;6.596;2023-03-20T13:07:29;5;5;
74880;PMS5003;63427;49.654;6.596;2023-03-20T13:09:55;6;6;
74880;PMS5003;63427;49.654;6.596;2023-03-20T13:12:20;4;4;
74880;PMS5003;63427;49.654;6.596;2023-03-20T13:14:43;5;5;
74880;PMS5003;63427;49.654;6.596;2023-03-20T13:17:10;4;4;
74880;PMS5003;63427;49.654;6.596;2023-03-20T13:19:35;7;7;
74880;PMS5003;63427;49.654;6.596;2023-03-20T13:22:00;6;6;
74880;PMS5003;63427;49.654;6.596;2023-03-20T13:24:28;5;5;
74880;PMS5003;63427;49.654;6.596;2023-03-20T13:26:51;6;6;
74880;PMS5003;63427;49.654;6.596;2023-03-20T13:29:17;6;6;
74880;PMS5003;63427;49.654;6.596;2023-03-20T13:31:43;4;4;
74880;PMS5003;63427;49.654;6.596;2023-03-20T13:34:09;5;4;
74880;PMS5003;63427;49.654;6.596;2023-03-20T13:36:35;7;7;
74880;PMS5003;63427;49.654;6.596;2023-03-20T13:38:58;4;4;
74880;PMS5003;63427;49.654;6.596;2023-03-20T13:41:22;6;5;
74880;PMS5003;63427;49.654;6.596;2023-03-20T13:43:47;5;5;
74880;PMS5003;63427;49.654;6.596;2023-03-20T13:46:13;5;5;
74880;PMS5003;63427;49.654;6.596;2023-03-20T13:48:38;5;5;
74880;PMS5003;63427;49.654;6.596;2023-03-20T13:51:05;6;6;
74880;PMS5003;63427;49.654;6.596;2023-03-20T13:53:29;7;7;
74880;PMS5003;63427;49.654;6.596;2023-03-20T13:55:56;6;6;
74880;PMS5003;63427;49.654;6.596;2023-03-20T13:58:24;5;5;
74880;PMS5003;63427;49.654;6.596;2023-03-20T14:00:45;4;4;
74880;PMS5003;63427;49.654;6.596;2023-03-20T14:03:13;6;5;
74880;PMS5003;63427;49.654;6.596;2023-03-20T14:05:37;5;5;
74880;PMS5003;63427;49.654;6.596;2023-03-20T14:08:19;7;7;
74880;PMS5003;63427;49.654;6.596;2023-03-20T14:10:32;3;3;
74880;PMS5003;63427;49.654;6.596;2023-03-20T14:12:52;5;5;
74880;PMS5003;63427;49.654;6.596;2023-03-20T14:15:17;6;6;
74880;PMS5003;63427;49.654;6.596;2023-03-20T14:17:42;7;6;
74880;PMS5003;63427;49.654;6.596;2023-03-20T14:20:10;6;6;
74880;PMS5003;63427;49.654;6.596;2023-03-20T14:22:34;7;6;
74880;PMS5003;63427;49.654;6.596;2023-03-20T14:24:58;5;5;
74880;PMS5003;63427;49.654;6.596;2023-03-20T14:27:25;5;5;
74880;PMS5003;63427;49.654;6.596;2023-03-20T14:29:49;5;4;
74880;PMS5003;63427;49.654;6.596;2023-03-20T14:32:21;5;5;
74880;PMS5003;63427;49.654;6.596;2023-03-20T14:34:44;5;5;
74880;PMS5003;63427;49.654;6.596;2023-03-20T14:39:39;3;3;
74880;PMS5003;63427;49.654;6.596;2023-03-20T14:41:59;6;4;
74880;PMS5003;63427;49.654;6.596;2023-03-20T14:44:23;5;5;
74880;PMS5003;63427;49.654;6.596;2023-03-20T14:46:48;5;5;
74880;PMS5003;63427;49.654;6.596;2023-03-20T14:49:22;5;4;
74880;PMS5003;63427;49.654;6.596;2023-03-20T14:51:38;3;3;
74880;PMS5003;63427;49.654;6.596;2023-03-20T14:56:29;7;7;
74880;PMS5003;63427;49.654;6.596;2023-03-20T14:58:55;4;4;
74880;PMS5003;63427;49.654;6.596;2023-03-20T15:01:43;4;4;
74880;PMS5003;63427;49.654;6.596;2023-03-20T15:03:45;5;5;
74880;PMS5003;63427;49.654;6.596;2023-03-20T15:06:09;5;5;
74880;PMS5003;63427;49.654;6.596;2023-03-20T15:08:35;3;2;
74880;PMS5003;63427;49.654;6.596;2023-03-20T15:11:01;3;3;
74880;PMS5003;63427;49.654;6.596;2023-03-20T15:13:25;4;4;
74880;PMS5003;63427;49.654;6.596;2023-03-20T15:15:51;3;3;
74880;PMS5003;63427;49.654;6.596;2023-03-20T15:18:16;5;5;
74880;PMS5003;63427;49.654;6.596;2023-03-20T15:20:43;5;5;
74880;PMS5003;63427;49.654;6.596;2023-03-20T15:23:07;3;3;
74880;PMS5003;63427;49.654;6.596;2023-03-20T15:25:32;4;4;
74880;PMS5003;63427;49.654;6.596;2023-03-20T15:27:57;4;4;
74880;PMS5003;63427;49.654;6.596;2023-03-20T15:30:23;2;2;
74880;PMS5003;63427;49.654;6.596;2023-03-20T15:32:48;3;3;
74880;PMS5003;63427;49.654;6.596;2023-03-20T15:35:14;4;4;
74880;PMS5003;63427;49.654;6.596;2023-03-20T15:37:39;7;5;
74880;PMS5003;63427;49.654;6.596;2023-03-20T15:40:09;4;4;
74880;PMS5003;63427;49.654;6.596;2023-03-20T15:42:29;4;4;
74880;PMS5003;63427;49.654;6.596;2023-03-20T15:44:55;3;3;
74880;PMS5003;63427;49.654;6.596;2023-03-20T15:47:21;3;3;
74880;PMS5003;63427;49.654;6.596;2023-03-20T15:49:48;2;2;
74880;PMS5003;63427;49.654;6.596;2023-03-20T15:52:12;4;3;
74880;PMS5003;63427;49.654;6.596;2023-03-20T15:54:36;3;3;
74880;PMS5003;63427;49.654;6.596;2023-03-20T15:57:03;5;5;
74880;PMS5003;63427;49.654;6.596;2023-03-20T15:59:28;6;6;
74880;PMS5003;63427;49.654;6.596;2023-03-20T16:01:55;3;3;
74880;PMS5003;63427;49.654;6.596;2023-03-20T16:04:18;4;4;
74880;PMS5003;63427;49.654;6.596;2023-03-20T16:06:44;3;3;
74880;PMS5003;63427;49.654;6.596;2023-03-20T16:09:12;4;4;
74880;PMS5003;63427;49.654;6.596;2023-03-20T16:11:35;4;4;
74880;PMS5003;63427;49.654;6.596;2023-03-20T16:14:00;3;2;
74880;PMS5003;63427;49.654;6.596;2023-03-20T16:16:25;4;4;
74880;PMS5003;63427;49.654;6.596;2023-03-20T16:21:17;4;4;
74880;PMS5003;63427;49.654;6.596;2023-03-20T16:23:43;3;3;
74880;PMS5003;63427;49.654;6.596;2023-03-20T16:26:07;4;3;
74880;PMS5003;63427;49.654;6.596;2023-03-20T16:28:34;4;3;
74880;PMS5003;63427;49.654;6.596;2023-03-20T16:31:02;4;4;